Aérodrome :
LOGIN :

S'inscrire | Disclaimer

   EN    FR    IT 

 










Légende :    VFR   VFR Marginal   IFR   IFR Intensif   IFR Très Intensif
Visi : 
Plafond : 
>= 8 km
>= 3000ft
5 à 8 km
1000 à 3000 ft
1500m à 5 km
500 à 1000 ft
800 à 1500m
200 à 500 ft
< 800m
< 200 ft
Symboles :   Orages  Brouillard  Fortes neiges  Fortes précipitations  Vent > 20 kt
SIGMETs :   Divers  Orages  Givrage  Turbulence  Onde Orograph.  Cendres Volcan.







- Altitude de l'aérodrome : 124 ft
- Code IATA : RNS
- Voir les cartes d'approche


LFRN - Rennes

DERNIER METAR :
  • 221800Z AUTO 24012KT 200V270 9999 OVC008 20/19 Q1016 TEMPO 22015G25KT 1500 DZRA BKN002

METARs EXPIRÉS :
  • 221730Z AUTO 23013KT 200V260 9999 OVC008 19/19 Q1016 TEMPO 22015G25KT 1500 DZRA BKN002
  • 221700Z AUTO 23013KT 200V260 6000 OVC007 19/18 Q1015 TEMPO 3000 RA BECMG 19020G30KT
  • 221630Z AUTO 21011KT 180V250 6000 OVC005 18/18 Q1016 TEMPO 3000 RA BECMG 19020G30KT
  • 221600Z AUTO 19013KT 4400 -DZ BR OVC006 17/17 Q1016 TEMPO RA BECMG 19020G30KT
  • 221530Z AUTO 18014KT 9999 OVC007 17/16 Q1016 TEMPO 3000 RA BECMG 19020G30KT

TAF TAF LFRN
Valide du 22 à 18h jusqu'au 23 à 18h UTC


221700Z 2218/2318 22015G25KT 9999 BKN010
TEMPO 2218/2312 3000 RA BKN005
TEMPO 2218/2308 1500 DZRA BKN002
BECMG 2219/2221 23010KT
BECMG 2307/2309 24015G30KT
BECMG 2311/2313 34015G30KT
BECMG 2313/2315 BKN030
ATIS : +33 2 99 67 72 50
Pas de NOTAMs connus pour ce terrain.
1 SIGMET publié pour la FIR Brest (LFRR) :
 
Turbulence forte
LFRR SIGMET 3 VALID 221600/222000 LFPW
LFRR BREST FIR/UIR SEV TURB FCST WI N4915 W00015 - N4815 W00015 - N4815 W00300 - N4915 W00230 - N4915 W00015 SFC/FL060 MOV E 15KT WKN=



MET'MAP, la Météo Aéronautique d'un coup d'oeil ! - Copyright ORBIFLY Décembre 2007 - Disclaimer

ORBIFLY MET'MAP TEAM :

Programmation & Développement : Alexandra Zaïnal
Conception & Développement : Baudouin d'Aumeries
Co-Programmation & Développement : Marc-Olivier Méhu
Soutien technique & logistique : Manuel Goepfert

Contact : metmap@orbifly.com




SOURCES & CREDITS :

   NOAA